Time;durP1;ratioP1;P1;durP2;ratioP2;P2;SDS_P1;SDS_P2;PMS_P1;PMS_P2;Temp;Humidity;BMP_temperature;BMP_pressure;BME280_temperature;BME280_humidity;BME280_pressure;Samples;Min_cycle;Max_cycle;Signal;HPM_P1;HPM_P2
2022/02/02 00:00:40;;;;;;;2.10;1.50;;;;;;;;;;6157559;23;20024;-70
2022/02/02 00:03:09;;;;;;;2.40;1.83;;;;;;;;;;6157852;23;20005;-70
2022/02/02 00:05:47;;;;;;;2.63;1.60;;;;;;;;;;6158241;23;20040;-70
2022/02/02 00:08:47;;;;;;;2.28;1.30;;;;;;;;;;6157825;23;20001;-70
2022/02/02 00:11:33;;;;;;;1.50;1.40;;;;;;;;;;6131304;23;20028;-70
2022/02/02 00:21:26;;;;;;;1.38;1.27;;;;;;;;;;6157618;23;20083;-71
2022/02/02 00:23:57;;;;;;;;;;;;;;;;;;6158464;23;20012;-70
2022/02/02 00:26:33;;;;;;;1.90;1.27;;;;;;;;;;6157986;23;19946;-70
2022/02/02 00:29:05;;;;;;;1.58;1.40;;;;;;;;;;6131968;23;20005;-70
2022/02/02 00:31:38;;;;;;;1.65;1.23;;;;;;;;;;6157654;23;20016;-70
2022/02/02 00:34:08;;;;;;;1.30;1.20;;;;;;;;;;6157498;23;20086;-70
2022/02/02 00:36:45;;;;;;;1.77;1.13;;;;;;;;;;6157858;23;20037;-70
2022/02/02 00:39:13;;;;;;;2.75;1.20;;;;;;;;;;6157966;23;20009;-72
2022/02/02 00:41:38;;;;;;;3.88;0.90;;;;;;;;;;6157507;23;19997;-69
2022/02/02 00:44:04;;;;;;;2.47;1.70;;;;;;;;;;6157165;23;20136;-72
2022/02/02 00:46:30;;;;;;;1.63;1.42;;;;;;;;;;6132020;23;20068;-74
2022/02/02 00:49:04;;;;;;;1.83;1.60;;;;;;;;;;6157885;23;20414;-73
2022/02/02 00:52:05;;;;;;;1.75;1.60;;;;;;;;;;6157649;23;20064;-73
2022/02/02 00:54:25;;;;;;;2.33;1.70;;;;;;;;;;6152014;23;20024;-70
2022/02/02 00:56:51;;;;;;;3.63;1.50;;;;;;;;;;6157258;23;19998;-70
2022/02/02 00:59:17;;;;;;;1.92;1.73;;;;;;;;;;6157052;23;20044;-70
2022/02/02 01:01:44;;;;;;;1.42;1.20;;;;;;;;;;6157852;23;20433;-70
2022/02/02 01:04:10;;;;;;;1.75;1.55;;;;;;;;;;6130658;23;20009;-68
2022/02/02 01:06:40;;;;;;;1.48;1.17;;;;;;;;;;6157397;23;20040;-69
2022/02/02 01:19:27;;;;;;;1.30;1.20;;;;;;;;;;6157189;23;20009;-70
2022/02/02 01:29:46;;;;;;;1.67;1.58;;;;;;;;;;6131095;23;20060;-69
2022/02/02 01:32:12;;;;;;;1.45;1.35;;;;;;;;;;6157152;23;20076;-70
2022/02/02 01:34:37;;;;;;;2.33;1.17;;;;;;;;;;6157079;23;20005;-70
2022/02/02 01:37:03;;;;;;;2.47;1.55;;;;;;;;;;6156960;23;20330;-71
2022/02/02 01:39:30;;;;;;;2.90;2.03;;;;;;;;;;6130625;23;20431;-70
2022/02/02 01:41:57;;;;;;;2.00;1.52;;;;;;;;;;6156868;23;20017;-71
2022/02/02 01:46:50;;;;;;;2.42;2.10;;;;;;;;;;6156883;23;19994;-70
2022/02/02 01:59:56;;;;;;;2.20;2.00;;;;;;;;;;6156913;23;20450;-70
2022/02/02 02:02:23;;;;;;;2.05;1.83;;;;;;;;;;6157104;23;20441;-70
2022/02/02 02:04:49;;;;;;;2.55;1.70;;;;;;;;;;6157078;23;20088;-70
2022/02/02 02:07:14;;;;;;;1.73;1.60;;;;;;;;;;6157165;23;20032;-70
2022/02/02 02:09:40;;;;;;;1.58;1.33;;;;;;;;;;6156858;23;20064;-70
2022/02/02 02:12:07;;;;;;;2.47;1.73;;;;;;;;;;6156733;23;20012;-70
2022/02/02 02:16:58;;;;;;;2.13;1.92;;;;;;;;;;6156831;23;20359;-72
2022/02/02 02:19:25;;;;;;;2.60;1.90;;;;;;;;;;6156817;23;20300;-72
2022/02/02 02:21:52;;;;;;;2.03;1.90;;;;;;;;;;6157035;23;20311;-72
2022/02/02 02:24:17;;;;;;;2.47;2.10;;;;;;;;;;6156628;23;20396;-72
2022/02/02 02:26:44;;;;;;;3.03;2.15;;;;;;;;;;6156988;23;19998;-73
2022/02/02 02:30:02;;;;;;;2.05;1.88;;;;;;;;;;6156395;23;20342;-72
2022/02/02 02:32:35;;;;;;;2.92;1.83;;;;;;;;;;6135569;23;20346;-72
2022/02/02 02:55:48;;;;;;;2.13;2.03;;;;;;;;;;6130149;23;20010;-73
2022/02/02 02:56:56;;;;;;;2.03;1.83;;;;;;;;;;6156711;23;20096;-73
2022/02/02 02:59:35;;;;;;;1.70;1.58;;;;;;;;;;6155740;23;20053;-72
2022/02/02 04:02:09;;;;;;;3.63;2.90;;;;;;;;;;6155990;23;20415;-73
2022/02/02 04:07:05;;;;;;;2.97;2.67;;;;;;;;;;6037056;23;20539;-73
2022/02/02 04:09:33;;;;;;;2.53;2.05;;;;;;;;;;6152651;23;20013;-73
2022/02/02 04:55:12;;;;;;;3.40;2.72;;;;;;;;;;6157762;23;20032;-73
2022/02/02 05:06:51;;;;;;;5.93;3.13;;;;;;;;;;6157095;23;20001;-73
2022/02/02 05:09:45;;;;;;;6.60;2.80;;;;;;;;;;6158031;23;20005;-72
2022/02/02 05:14:24;;;;;;;4.28;2.28;;;;;;;;;;6157612;23;20009;-71
2022/02/02 05:20:46;;;;;;;3.50;2.33;;;;;;;;;;6157676;23;20013;-71
2022/02/02 05:52:43;;;;;;;3.13;1.83;;;;;;;;;;6156896;23;20426;-69
2022/02/02 05:55:09;;;;;;;4.45;2.13;;;;;;;;;;6156840;23;19997;-69
2022/02/02 05:57:39;;;;;;;2.28;1.88;;;;;;;;;;6157125;23;20480;-69
2022/02/02 06:00:04;;;;;;;4.65;2.40;;;;;;;;;;6156486;23;20131;-69
2022/02/02 06:02:31;;;;;;;5.40;3.05;;;;;;;;;;6156379;23;20013;-69
2022/02/02 06:04:58;;;;;;;3.47;2.13;;;;;;;;;;6130286;23;19997;-69
2022/02/02 06:07:25;;;;;;;5.35;2.47;;;;;;;;;;6130614;23;20005;-69
2022/02/02 06:09:51;;;;;;;2.00;1.55;;;;;;;;;;6155998;23;20362;-68
2022/02/02 06:12:18;;;;;;;2.88;1.92;;;;;;;;;;6156835;23;20016;-69
2022/02/02 06:14:44;;;;;;;3.80;2.25;;;;;;;;;;6156591;23;20362;-69
2022/02/02 06:17:09;;;;;;;2.28;1.92;;;;;;;;;;6130451;23;20064;-68
2022/02/02 06:19:35;;;;;;;2.35;1.60;;;;;;;;;;6156948;23;20371;-68
2022/02/02 06:22:16;;;;;;;2.38;1.67;;;;;;;;;;6156654;23;20312;-68
2022/02/02 06:24:49;;;;;;;2.65;1.80;;;;;;;;;;6156616;23;20005;-68
2022/02/02 06:27:25;;;;;;;3.70;2.10;;;;;;;;;;6156715;23;20002;-71
2022/02/02 06:30:02;;;;;;;2.25;1.70;;;;;;;;;;6156512;23;20008;-71
2022/02/02 06:32:31;;;;;;;2.78;1.25;;;;;;;;;;6157311;23;20095;-72
2022/02/02 06:35:01;;;;;;;2.60;1.85;;;;;;;;;;6156508;23;20002;-71
2022/02/02 06:37:28;;;;;;;3.25;1.95;;;;;;;;;;6156096;23;20009;-71
2022/02/02 06:39:54;;;;;;;1.33;1.23;;;;;;;;;;6156040;23;20025;-71
2022/02/02 06:42:20;;;;;;;2.47;1.30;;;;;;;;;;6155897;23;20005;-71
2022/02/02 06:44:45;;;;;;;1.20;0.77;;;;;;;;;;6156304;23;20051;-71
2022/02/02 06:47:10;;;;;;;2.65;1.58;;;;;;;;;;6156147;23;20006;-72
2022/02/02 06:49:38;;;;;;;3.05;1.50;;;;;;;;;;6155909;23;20044;-72
2022/02/02 06:52:12;;;;;;;4.07;1.88;;;;;;;;;;6156014;23;20032;-72
2022/02/02 06:54:51;;;;;;;2.50;1.88;;;;;;;;;;6156032;23;20040;-72
2022/02/02 06:57:23;;;;;;;2.88;2.05;;;;;;;;;;6156132;23;20390;-71
2022/02/02 07:00:14;;;;;;;3.75;1.95;;;;;;;;;;6155693;23;20024;-72
2022/02/02 07:02:57;;;;;;;2.50;1.65;;;;;;;;;;6155300;23;20069;-73
2022/02/02 07:06:00;;;;;;;3.10;1.70;;;;;;;;;;6155780;23;20100;-72
2022/02/02 07:13:52;;;;;;;3.33;2.20;;;;;;;;;;6129782;23;20346;-72
2022/02/02 07:16:43;;;;;;;4.28;2.53;;;;;;;;;;6155797;23;20006;-73
2022/02/02 07:27:40;;;;;;;4.40;3.05;;;;;;;;;;6108193;23;20014;-72
2022/02/02 07:33:02;;;;;;;4.22;2.97;;;;;;;;;;6095855;23;20092;-72
2022/02/02 07:35:36;;;;;;;4.38;2.53;;;;;;;;;;6155906;23;20002;-70
2022/02/02 07:38:01;;;;;;;4.07;2.17;;;;;;;;;;6155801;23;20084;-71
2022/02/02 07:40:27;;;;;;;5.07;2.33;;;;;;;;;;6129337;23;20497;-71
2022/02/02 07:42:55;;;;;;;5.55;2.42;;;;;;;;;;6155466;23;20499;-71
2022/02/02 07:45:22;;;;;;;4.43;2.40;;;;;;;;;;6155873;23;20017;-71
2022/02/02 07:47:54;;;;;;;4.15;2.10;;;;;;;;;;6155037;23;20013;-71
2022/02/02 07:50:21;;;;;;;4.78;2.85;;;;;;;;;;6154832;23;20545;-71
2022/02/02 07:52:49;;;;;;;4.38;3.05;;;;;;;;;;6154811;23;20029;-71
2022/02/02 07:55:15;;;;;;;4.30;2.50;;;;;;;;;;6128726;23;20006;-71
2022/02/02 07:57:41;;;;;;;4.95;3.17;;;;;;;;;;6128462;23;20020;-71
2022/02/02 08:00:16;;;;;;;3.35;2.60;;;;;;;;;;6140928;23;20014;-71
2022/02/02 08:05:28;;;;;;;6.43;3.13;;;;;;;;;;6155587;23;20012;-72
2022/02/02 08:08:25;;;;;;;7.43;2.92;;;;;;;;;;6155449;23;20422;-72
2022/02/02 08:10:52;;;;;;;5.93;3.15;;;;;;;;;;6155537;23;20002;-72
2022/02/02 08:15:43;;;;;;;5.72;2.25;;;;;;;;;;6157651;23;20001;-71
2022/02/02 08:18:09;;;;;;;4.50;2.88;;;;;;;;;;6157572;23;20005;-72
2022/02/02 08:20:34;;;;;;;5.75;2.55;;;;;;;;;;6157347;23;20064;-71
2022/02/02 08:23:00;;;;;;;6.78;2.75;;;;;;;;;;6157415;23;20025;-72
2022/02/02 08:25:27;;;;;;;4.47;3.03;;;;;;;;;;6156699;23;20041;-72
2022/02/02 08:27:54;;;;;;;4.97;2.83;;;;;;;;;;6157335;23;20430;-71
2022/02/02 08:30:22;;;;;;;6.43;2.95;;;;;;;;;;6157337;23;20011;-72
2022/02/02 08:32:53;;;;;;;7.18;3.63;;;;;;;;;;6157367;23;20008;-72
2022/02/02 08:35:22;;;;;;;5.55;3.10;;;;;;;;;;6157117;23;20009;-72
2022/02/02 08:37:53;;;;;;;6.07;3.08;;;;;;;;;;6157383;23;20084;-72
2022/02/02 08:40:25;;;;;;;4.35;3.13;;;;;;;;;;6131000;23;20377;-72
2022/02/02 08:42:51;;;;;;;4.70;3.13;;;;;;;;;;6157045;23;20009;-72
2022/02/02 08:45:26;;;;;;;5.10;3.58;;;;;;;;;;6131147;23;20017;-72
2022/02/02 08:47:59;;;;;;;8.05;3.60;;;;;;;;;;6131207;23;20430;-72
2022/02/02 08:50:36;;;;;;;6.47;3.28;;;;;;;;;;6157055;23;20005;-72
2022/02/02 08:53:11;;;;;;;4.38;2.28;;;;;;;;;;6130572;23;20006;-72
2022/02/02 09:00:54;;;;;;;5.95;3.20;;;;;;;;;;6156379;23;20013;-71
2022/02/02 09:06:03;;;;;;;4.82;3.28;;;;;;;;;;6157156;23;20017;-71
2022/02/02 09:08:30;;;;;;;5.25;3.42;;;;;;;;;;6131054;23;20005;-71
2022/02/02 09:24:29;;;;;;;6.22;3.60;;;;;;;;;;6156480;23;20008;-71
2022/02/02 09:34:47;;;;;;;8.75;5.45;;;;;;;;;;6156689;23;20036;-71
2022/02/02 09:37:13;;;;;;;6.32;4.20;;;;;;;;;;6130704;23;20013;-71
2022/02/02 09:39:45;;;;;;;5.78;3.55;;;;;;;;;;6156695;23;20005;-71
2022/02/02 09:42:14;;;;;;;6.18;4.18;;;;;;;;;;6156578;23;20037;-71
2022/02/02 09:44:42;;;;;;;7.32;4.50;;;;;;;;;;6156742;23;20017;-71
2022/02/02 09:47:19;;;;;;;4.40;3.15;;;;;;;;;;6156605;23;20053;-72
2022/02/02 09:52:14;;;;;;;6.80;4.05;;;;;;;;;;6130331;23;20139;-72
2022/02/02 10:05:26;;;;;;;4.22;3.42;;;;;;;;;;6156325;23;20496;-72
2022/02/02 10:15:56;;;;;;;6.00;3.28;;;;;;;;;;6156346;23;20056;-71
2022/02/02 10:18:31;;;;;;;4.85;2.55;;;;;;;;;;6156326;23;20013;-71
2022/02/02 10:20:57;;;;;;;5.90;3.03;;;;;;;;;;6130216;23;20013;-71
2022/02/02 10:23:23;;;;;;;5.05;3.60;;;;;;;;;;6130227;23;20492;-72
2022/02/02 10:25:50;;;;;;;3.65;2.85;;;;;;;;;;6156312;23;20056;-72
2022/02/02 10:28:16;;;;;;;3.90;2.47;;;;;;;;;;6105817;23;20001;-71
2022/02/02 10:30:52;;;;;;;6.53;3.55;;;;;;;;;;6156064;23;20005;-72
2022/02/02 10:33:19;;;;;;;3.72;2.97;;;;;;;;;;6156164;23;20351;-71
2022/02/02 10:35:46;;;;;;;6.25;3.40;;;;;;;;;;6155894;23;20002;-71
2022/02/02 10:38:14;;;;;;;6.40;3.58;;;;;;;;;;6156236;23;20001;-71
2022/02/02 10:41:45;;;;;;;4.75;2.60;;;;;;;;;;6155884;23;20377;-71
2022/02/02 10:43:41;;;;;;;5.45;3.30;;;;;;;;;;6130034;23;20025;-71
2022/02/02 10:46:11;;;;;;;5.00;2.95;;;;;;;;;;6156301;23;20084;-72
2022/02/02 10:48:45;;;;;;;5.43;2.75;;;;;;;;;;6156116;23;20005;-71
2022/02/02 10:51:19;;;;;;;5.72;2.80;;;;;;;;;;6155912;23;20013;-71
2022/02/02 10:56:46;;;;;;;3.88;2.83;;;;;;;;;;6156012;23;20096;-72
2022/02/02 11:06:35;;;;;;;4.78;2.75;;;;;;;;;;6122803;23;20049;-71
2022/02/02 11:07:17;;;;;;;6.03;3.38;;;;;;;;;;6155923;23;20001;-71
2022/02/02 11:09:48;;;;;;;3.35;2.67;;;;;;;;;;6155673;23;20004;-72
2022/02/02 11:12:15;;;;;;;4.60;2.15;;;;;;;;;;6129789;23;20036;-72
2022/02/02 11:14:52;;;;;;;5.75;3.10;;;;;;;;;;6155931;23;20048;-72
2022/02/02 11:17:33;;;;;;;5.10;2.97;;;;;;;;;;6155779;23;20005;-71
2022/02/02 11:20:01;;;;;;;4.20;2.65;;;;;;;;;;6155692;23;20020;-71
2022/02/02 11:22:34;;;;;;;3.15;2.35;;;;;;;;;;6129649;23;20011;-71
2022/02/02 11:25:02;;;;;;;4.28;2.13;;;;;;;;;;6155810;23;20016;-71
2022/02/02 11:27:46;;;;;;;4.00;2.15;;;;;;;;;;6155766;23;20025;-71
2022/02/02 11:30:24;;;;;;;1.80;1.45;;;;;;;;;;6129898;23;20082;-71
2022/02/02 11:32:54;;;;;;;3.95;2.50;;;;;;;;;;6155688;23;20056;-71
2022/02/02 11:38:06;;;;;;;3.80;2.05;;;;;;;;;;6155705;23;20103;-71
2022/02/02 11:40:36;;;;;;;3.33;2.03;;;;;;;;;;6155788;23;20365;-71
2022/02/02 11:43:11;;;;;;;2.22;2.03;;;;;;;;;;6155670;23;20020;-71
2022/02/02 11:45:57;;;;;;;4.68;2.42;;;;;;;;;;6155728;23;20434;-72
2022/02/02 11:48:44;;;;;;;5.22;2.40;;;;;;;;;;6130425;23;20017;-71
2022/02/02 11:51:10;;;;;;;2.28;1.83;;;;;;;;;;6157654;23;20016;-71
2022/02/02 11:53:50;;;;;;;5.53;2.55;;;;;;;;;;6157499;23;20001;-71
2022/02/02 11:56:17;;;;;;;4.47;2.17;;;;;;;;;;6157662;23;20066;-71
2022/02/02 11:58:44;;;;;;;3.97;1.88;;;;;;;;;;6131395;23;20331;-71
2022/02/02 12:03:45;;;;;;;4.30;2.30;;;;;;;;;;6131635;23;20033;-71
2022/02/02 12:06:43;;;;;;;3.72;2.58;;;;;;;;;;6157421;23;20418;-69
2022/02/02 12:11:58;;;;;;;7.82;3.67;;;;;;;;;;6156881;23;20334;-69
2022/02/02 12:36:02;;;;;;;3.42;1.92;;;;;;;;;;6052364;23;20024;-70
2022/02/02 12:56:55;;;;;;;4.60;2.83;;;;;;;;;;6157029;23;20004;-69
2022/02/02 12:59:53;;;;;;;4.43;2.42;;;;;;;;;;6130540;23;20345;-69
2022/02/02 13:02:20;;;;;;;5.63;2.65;;;;;;;;;;6156361;23;20021;-69
2022/02/02 13:04:55;;;;;;;8.98;3.15;;;;;;;;;;6156886;23;20017;-69
2022/02/02 13:07:23;;;;;;;5.70;2.85;;;;;;;;;;6156788;23;20092;-69
2022/02/02 13:09:50;;;;;;;9.52;3.25;;;;;;;;;;6157065;23;20506;-69
2022/02/02 13:12:20;;;;;;;5.22;2.60;;;;;;;;;;6156739;23;20017;-69
2022/02/02 13:17:39;;;;;;;4.65;2.58;;;;;;;;;;6157095;23;20137;-69
2022/02/02 13:20:10;;;;;;;3.63;2.28;;;;;;;;;;6156921;23;20005;-69
2022/02/02 13:22:37;;;;;;;4.45;2.47;;;;;;;;;;6156694;23;20031;-69
2022/02/02 13:25:03;;;;;;;5.60;2.25;;;;;;;;;;6156413;23;20327;-69
2022/02/02 13:27:33;;;;;;;6.28;3.20;;;;;;;;;;6156804;23;20014;-69
2022/02/02 13:30:04;;;;;;;4.88;2.47;;;;;;;;;;6156821;23;20005;-69
2022/02/02 13:32:46;;;;;;;4.22;2.28;;;;;;;;;;6156802;23;20093;-69
2022/02/02 13:35:24;;;;;;;4.05;2.10;;;;;;;;;;6156771;23;20005;-69
2022/02/02 13:38:14;;;;;;;4.50;2.58;;;;;;;;;;6156571;23;20435;-69
2022/02/02 13:43:51;;;;;;;4.40;2.42;;;;;;;;;;6156598;23;20010;-68
2022/02/02 13:49:29;;;;;;;7.68;5.13;;;;;;;;;;6121765;23;20017;-68
2022/02/02 13:55:08;;;;;;;5.53;3.55;;;;;;;;;;6074905;23;20020;-71
2022/02/02 14:00:23;;;;;;;15.70;6.20;;;;;;;;;;6147023;23;20016;-70
2022/02/02 14:03:53;;;;;;;;;;;;;;;;;;6154747;23;20014;-71
2022/02/02 14:11:27;;;;;;;4.53;3.15;;;;;;;;;;6103570;23;20018;-74
2022/02/02 14:32:58;;;;;;;4.50;3.00;;;;;;;;;;6123083;23;20013;-75
2022/02/02 14:35:24;;;;;;;4.15;3.03;;;;;;;;;;6122933;23;20001;-75
2022/02/02 14:37:52;;;;;;;5.47;3.30;;;;;;;;;;6153938;23;20040;-76
2022/02/02 14:40:26;;;;;;;4.95;3.30;;;;;;;;;;6152893;23;20391;-76
2022/02/02 14:42:55;;;;;;;5.45;2.75;;;;;;;;;;6154114;23;20021;-76
2022/02/02 14:45:24;;;;;;;4.55;2.72;;;;;;;;;;6153499;23;20146;-76
2022/02/02 14:47:55;;;;;;;5.55;2.72;;;;;;;;;;6153670;23;20010;-75
2022/02/02 14:50:32;;;;;;;3.85;2.35;;;;;;;;;;6127501;23;20776;-75
2022/02/02 15:07:57;;;;;;;5.00;3.00;;;;;;;;;;6113944;23;20446;-75
2022/02/02 15:27:52;;;;;;;3.92;2.22;;;;;;;;;;6121733;23;20443;-74
2022/02/02 15:30:26;;;;;;;3.30;2.88;;;;;;;;;;6121685;23;20002;-74
2022/02/02 15:32:56;;;;;;;5.45;2.45;;;;;;;;;;6119707;23;20346;-74
2022/02/02 15:35:22;;;;;;;3.35;2.33;;;;;;;;;;6118880;23;20439;-75
2022/02/02 15:40:25;;;;;;;5.95;3.60;;;;;;;;;;6120537;23;20038;-75
2022/02/02 15:58:51;;;;;;;91.30;52.83;;;;;;;;;;6123749;23;20064;-75
2022/02/02 16:03:51;;;;;;;8.93;6.90;;;;;;;;;;6153218;23;20012;-75
2022/02/02 16:06:20;;;;;;;4.15;3.10;;;;;;;;;;6152789;23;20005;-75
2022/02/02 16:08:48;;;;;;;17.60;10.98;;;;;;;;;;6153210;23;20010;-75
2022/02/02 16:11:26;;;;;;;4.90;4.25;;;;;;;;;;6153198;23;20486;-75
2022/02/02 16:13:56;;;;;;;9.35;5.90;;;;;;;;;;6128080;23;20013;-75
2022/02/02 16:19:01;;;;;;;1.40;1.30;;;;;;;;;;6155922;23;19979;-74
2022/02/02 16:37:41;;;;;;;24.70;17.33;;;;;;;;;;6156995;23;20446;-75
2022/02/02 16:40:08;;;;;;;5.43;4.28;;;;;;;;;;6157519;23;20002;-75
2022/02/02 16:45:19;;;;;;;2.13;2.03;;;;;;;;;;6157097;23;20306;-75
2022/02/02 16:47:46;;;;;;;6.07;5.28;;;;;;;;;;6157679;23;20081;-75
2022/02/02 16:50:19;;;;;;;28.00;19.83;;;;;;;;;;6157464;23;20002;-75
2022/02/02 16:52:48;;;;;;;4.18;3.40;;;;;;;;;;6157105;23;20338;-75
2022/02/02 16:55:26;;;;;;;3.95;3.13;;;;;;;;;;6157018;23;20050;-75
2022/02/02 16:58:02;;;;;;;12.27;9.68;;;;;;;;;;6156986;23;20084;-75
2022/02/02 17:28:41;;;;;;;7.53;5.40;;;;;;;;;;6156978;23;20005;-75
2022/02/02 17:32:54;;;;;;;7.72;5.68;;;;;;;;;;6156889;23;20009;-75
2022/02/02 17:35:30;;;;;;;7.97;5.85;;;;;;;;;;6156971;23;20089;-74
2022/02/02 17:38:07;;;;;;;7.63;6.20;;;;;;;;;;6156780;23;20013;-74
2022/02/02 17:43:20;;;;;;;6.90;5.15;;;;;;;;;;6130327;23;20010;-74
2022/02/02 17:57:36;;;;;;;5.82;4.90;;;;;;;;;;6155437;23;20009;-74
2022/02/02 18:20:50;;;;;;;4.28;3.88;;;;;;;;;;6152925;23;20010;-71
2022/02/02 18:26:08;;;;;;;4.88;4.20;;;;;;;;;;6152790;23;20006;-71
2022/02/02 18:28:45;;;;;;;4.70;4.15;;;;;;;;;;6153216;23;20060;-71
2022/02/02 18:34:09;;;;;;;6.30;5.35;;;;;;;;;;6153073;23;20009;-71
2022/02/02 18:49:47;;;;;;;13.52;6.50;;;;;;;;;;6156066;23;20002;-71
2022/02/02 19:05:32;;;;;;;15.43;6.53;;;;;;;;;;6156250;23;20005;-70
2022/02/02 19:38:12;;;;;;;12.50;6.97;;;;;;;;;;6130641;23;20009;-69
2022/02/02 20:01:57;;;;;;;8.77;6.13;;;;;;;;;;6155804;23;20076;-71
2022/02/02 20:04:49;;;;;;;7.90;5.88;;;;;;;;;;6156490;23;20013;-71
2022/02/02 20:10:29;;;;;;;9.60;5.80;;;;;;;;;;6010200;23;20019;-75
2022/02/02 20:12:55;;;;;;;9.45;6.22;;;;;;;;;;6045408;23;20068;-75
2022/02/02 20:15:22;;;;;;;9.27;5.78;;;;;;;;;;6158554;23;19989;-75
2022/02/02 20:17:49;;;;;;;6.82;4.78;;;;;;;;;;6158146;23;20016;-75
2022/02/02 20:20:19;;;;;;;7.60;5.28;;;;;;;;;;6157687;23;20012;-75
2022/02/02 20:22:45;;;;;;;8.73;5.65;;;;;;;;;;6158223;23;20010;-75
2022/02/02 20:25:13;;;;;;;5.75;4.82;;;;;;;;;;6157758;23;20075;-75
2022/02/02 20:27:42;;;;;;;10.93;5.63;;;;;;;;;;6158412;23;20029;-75
2022/02/02 20:30:10;;;;;;;7.43;5.72;;;;;;;;;;6157804;23;20007;-75
2022/02/02 20:32:45;;;;;;;8.93;5.90;;;;;;;;;;6158504;23;20044;-75
2022/02/02 20:35:11;;;;;;;7.63;5.10;;;;;;;;;;6157682;23;20020;-75
2022/02/02 20:37:36;;;;;;;7.70;5.18;;;;;;;;;;6157461;23;20334;-75
2022/02/02 20:40:07;;;;;;;7.20;5.53;;;;;;;;;;6131631;23;20304;-75
2022/02/02 20:42:40;;;;;;;;;;;;;;;;;;6157931;23;20438;-75
2022/02/02 21:14:37;;;;;;;9.00;6.07;;;;;;;;;;6131190;23;20140;-75
2022/02/02 21:17:07;;;;;;;12.02;6.72;;;;;;;;;;6157381;23;20005;-75
2022/02/02 21:19:51;;;;;;;9.90;6.05;;;;;;;;;;6157587;23;20044;-75
2022/02/02 21:22:19;;;;;;;7.00;5.25;;;;;;;;;;6131787;23;20009;-75
2022/02/02 21:24:53;;;;;;;5.75;4.90;;;;;;;;;;6157426;23;20028;-75
2022/02/02 21:27:26;;;;;;;7.72;5.25;;;;;;;;;;6157788;23;20342;-76
2022/02/02 21:29:53;;;;;;;7.57;5.22;;;;;;;;;;6157801;23;20315;-76
2022/02/02 21:32:19;;;;;;;8.60;5.63;;;;;;;;;;6157406;23;20021;-76
2022/02/02 21:34:45;;;;;;;9.45;5.50;;;;;;;;;;6157346;23;20005;-75
2022/02/02 21:37:11;;;;;;;10.30;5.82;;;;;;;;;;6156671;23;20325;-76
2022/02/02 21:39:51;;;;;;;10.63;5.78;;;;;;;;;;6157379;23;20001;-76
2022/02/02 21:42:17;;;;;;;6.47;4.97;;;;;;;;;;6157350;23;20033;-71
2022/02/02 21:44:43;;;;;;;7.95;5.15;;;;;;;;;;6156842;23;20406;-66
2022/02/02 21:47:11;;;;;;;7.25;4.78;;;;;;;;;;6157047;23;20033;-69
2022/02/02 21:49:36;;;;;;;9.23;5.38;;;;;;;;;;6156697;23;19994;-70
2022/02/02 21:52:06;;;;;;;6.07;5.00;;;;;;;;;;6156980;23;20016;-70
2022/02/02 21:54:32;;;;;;;7.32;5.40;;;;;;;;;;6157268;23;20009;-69
2022/02/02 21:56:58;;;;;;;7.90;5.72;;;;;;;;;;6157249;23;19997;-71
2022/02/02 21:59:25;;;;;;;8.05;5.85;;;;;;;;;;6157096;23;20009;-69
2022/02/02 22:01:50;;;;;;;8.02;5.45;;;;;;;;;;6155976;23;20013;-71
2022/02/02 22:04:17;;;;;;;8.13;5.60;;;;;;;;;;6131006;23;20056;-75
2022/02/02 22:06:44;;;;;;;8.68;5.82;;;;;;;;;;6130632;23;20032;-74
2022/02/02 22:09:09;;;;;;;9.65;5.60;;;;;;;;;;6157379;23;20033;-74
2022/02/02 22:11:36;;;;;;;9.10;6.30;;;;;;;;;;6156845;23;20004;-74
2022/02/02 22:14:14;;;;;;;42.25;18.67;;;;;;;;;;6157171;23;20016;-75
2022/02/02 22:16:41;;;;;;;45.83;20.30;;;;;;;;;;6157306;23;20010;-75
2022/02/02 22:19:07;;;;;;;16.23;10.25;;;;;;;;;;6157200;23;20008;-74
2022/02/02 22:21:33;;;;;;;10.35;6.30;;;;;;;;;;6157133;23;20096;-75
2022/02/02 22:24:02;;;;;;;11.88;6.72;;;;;;;;;;6156798;23;20029;-75
2022/02/02 22:26:28;;;;;;;18.85;7.80;;;;;;;;;;6156939;23;20001;-71
2022/02/02 22:28:53;;;;;;;18.52;6.43;;;;;;;;;;6130848;23;19993;-68
2022/02/02 22:31:20;;;;;;;28.98;8.93;;;;;;;;;;6130795;23;20008;-74
2022/02/02 22:33:45;;;;;;;40.20;16.45;;;;;;;;;;6156391;23;19997;-67
2022/02/02 22:36:12;;;;;;;11.10;6.70;;;;;;;;;;6156796;23;20518;-70
2022/02/02 22:38:40;;;;;;;17.08;6.65;;;;;;;;;;6156490;23;19998;-70
2022/02/02 22:41:05;;;;;;;23.63;8.00;;;;;;;;;;6156668;23;20006;-69
2022/02/02 22:43:33;;;;;;;20.95;7.15;;;;;;;;;;6156051;23;20465;-70
2022/02/02 22:45:59;;;;;;;13.25;6.03;;;;;;;;;;6156337;23;20005;-71
2022/02/02 22:48:26;;;;;;;16.17;6.78;;;;;;;;;;6156698;23;19994;-71
2022/02/02 22:50:52;;;;;;;14.85;7.55;;;;;;;;;;6156401;23;20012;-71
2022/02/02 22:53:21;;;;;;;20.58;10.95;;;;;;;;;;6130274;23;20411;-71
2022/02/02 22:55:47;;;;;;;12.30;6.53;;;;;;;;;;6156338;23;20438;-71
2022/02/02 22:58:12;;;;;;;23.55;8.32;;;;;;;;;;6156678;23;20081;-71
2022/02/02 23:00:40;;;;;;;12.07;5.72;;;;;;;;;;6130209;23;20055;-71
2022/02/02 23:03:12;;;;;;;12.60;6.00;;;;;;;;;;6123108;23;20020;-71
2022/02/02 23:05:41;;;;;;;10.90;5.20;;;;;;;;;;6156054;23;20005;-72
2022/02/02 23:08:08;;;;;;;13.00;6.00;;;;;;;;;;6156257;23;19997;-71
2022/02/02 23:10:36;;;;;;;10.95;5.65;;;;;;;;;;6156192;23;20410;-72
2022/02/02 23:13:02;;;;;;;10.18;6.68;;;;;;;;;;6156066;23;20429;-70
2022/02/02 23:18:07;;;;;;;14.05;6.38;;;;;;;;;;6130426;23;20013;-70
2022/02/02 23:20:33;;;;;;;11.80;6.47;;;;;;;;;;6130175;23;20433;-76
2022/02/02 23:23:03;;;;;;;20.98;8.50;;;;;;;;;;6156699;23;19997;-70
2022/02/02 23:25:30;;;;;;;20.83;8.27;;;;;;;;;;6156261;23;20006;-70
2022/02/02 23:27:56;;;;;;;10.10;6.10;;;;;;;;;;6130061;23;20012;-69
2022/02/02 23:30:22;;;;;;;15.25;8.82;;;;;;;;;;6129810;23;20014;-70
2022/02/02 23:32:47;;;;;;;19.92;12.57;;;;;;;;;;6156405;23;20080;-70
2022/02/02 23:35:13;;;;;;;7.57;5.78;;;;;;;;;;6156228;23;20016;-70
2022/02/02 23:37:39;;;;;;;11.02;6.82;;;;;;;;;;6156155;23;20008;-70
2022/02/02 23:40:06;;;;;;;8.98;5.65;;;;;;;;;;6156118;23;20005;-69
2022/02/02 23:42:36;;;;;;;12.55;7.03;;;;;;;;;;6155910;23;20505;-69
2022/02/02 23:45:04;;;;;;;15.85;7.57;;;;;;;;;;6129608;23;20330;-69
2022/02/02 23:47:31;;;;;;;12.52;6.45;;;;;;;;;;6156012;23;19997;-69
2022/02/02 23:50:01;;;;;;;12.20;6.85;;;;;;;;;;6155828;23;20021;-76
2022/02/02 23:52:33;;;;;;;10.63;6.85;;;;;;;;;;6156017;23;20002;-73
2022/02/02 23:55:00;;;;;;;9.65;6.97;;;;;;;;;;6156506;23;20005;-74
2022/02/02 23:57:52;;;;;;;8.43;5.63;;;;;;;;;;6156524;23;20001;-76
